Time;durP1;ratioP1;P1;durP2;ratioP2;P2;SDS_P1;SDS_P2;PMS_P1;PMS_P2;Temp;Humidity;BMP_temperature;BMP_pressure;BME280_temperature;BME280_humidity;BME280_pressure;Samples;Min_cycle;Max_cycle;Signal;HPM_P1;HPM_P2
2022/06/14 00:02:03;;;;;;;5.35;1.52;;;7.60;1.00;;;;;;5054120;28;20029;-72
2022/06/14 00:04:29;;;;;;;8.43;1.88;;;7.50;1.00;;;;;;5038879;28;20075;-72
2022/06/14 00:06:57;;;;;;;7.60;1.60;;;7.50;1.00;;;;;;5049766;28;20025;-73
2022/06/14 00:09:26;;;;;;;5.53;1.73;;;7.50;1.00;;;;;;5054642;28;20036;-73
2022/06/14 00:12:00;;;;;;;6.40;1.52;;;7.50;1.00;;;;;;5043631;28;20065;-73
2022/06/14 00:14:28;;;;;;;10.93;2.00;;;7.60;1.00;;;;;;5051760;28;20423;-73
2022/06/14 00:16:59;;;;;;;5.07;1.40;;;7.50;1.00;;;;;;5044000;28;20052;-73
2022/06/14 00:19:31;;;;;;;5.28;1.30;;;7.50;1.00;;;;;;5050773;28;20043;-73
2022/06/14 00:22:02;;;;;;;4.82;1.63;;;7.50;1.00;;;;;;5053789;28;20025;-72
2022/06/14 00:24:28;;;;;;;4.47;1.10;;;7.40;1.00;;;;;;5054151;28;20021;-73
2022/06/14 00:27:06;;;;;;;5.25;1.50;;;7.40;1.00;;;;;;5053900;28;20065;-73
2022/06/14 00:29:31;;;;;;;7.90;1.45;;;7.40;1.00;;;;;;5043046;28;20120;-73
2022/06/14 00:32:03;;;;;;;5.25;1.60;;;7.30;1.00;;;;;;5049507;28;20107;-72
2022/06/14 00:34:37;;;;;;;4.20;1.48;;;7.30;1.00;;;;;;5039185;28;20553;-73
2022/06/14 00:37:24;;;;;;;8.90;1.75;;;7.20;1.00;;;;;;5044192;28;20013;-73
2022/06/14 00:39:53;;;;;;;6.80;1.65;;;7.20;1.00;;;;;;5053356;28;20100;-72
2022/06/14 00:42:25;;;;;;;4.97;1.50;;;7.20;1.00;;;;;;5053893;28;20075;-72
2022/06/14 00:45:26;;;;;;;5.70;1.70;;;7.20;1.00;;;;;;5050829;28;20079;-72
2022/06/14 00:48:03;;;;;;;;;;;7.30;1.00;;;;;;5046994;28;20032;-73
2022/06/14 00:51:02;;;;;;;6.45;1.65;;;7.10;1.00;;;;;;5040303;28;19967;-72
2022/06/14 00:53:52;;;;;;;4.80;1.60;;;7.00;1.00;;;;;;5053183;28;20100;-73
2022/06/14 00:56:56;;;;;;;6.70;2.00;;;7.10;1.00;;;;;;5053140;28;20104;-72
2022/06/14 00:59:32;;;;;;;3.70;1.60;;;7.10;1.00;;;;;;5001101;28;20498;-72
2022/06/14 01:02:26;;;;;;;5.00;1.58;;;7.10;1.00;;;;;;5010413;28;20037;-72
2022/06/14 01:04:53;;;;;;;4.32;1.58;;;7.10;1.00;;;;;;5046599;28;20021;-72
2022/06/14 01:07:44;;;;;;;8.02;1.80;;;7.10;1.00;;;;;;5052881;28;20472;-73
2022/06/14 01:10:19;;;;;;;6.20;1.63;;;7.20;1.00;;;;;;5042235;28;20502;-72
2022/06/14 01:12:58;;;;;;;2.22;1.45;;;7.10;1.00;;;;;;5036617;28;20058;-72
2022/06/14 01:15:35;;;;;;;7.20;1.70;;;7.00;1.00;;;;;;5053045;28;20032;-72
2022/06/14 01:18:13;;;;;;;4.47;1.63;;;7.00;1.00;;;;;;5052767;28;20020;-73
2022/06/14 01:20:45;;;;;;;3.70;1.83;;;7.10;1.00;;;;;;5052855;28;20482;-72
2022/06/14 01:23:19;;;;;;;3.40;2.03;;;7.10;1.00;;;;;;5052702;28;20039;-72
2022/06/14 01:25:51;;;;;;;5.53;1.50;;;7.20;1.00;;;;;;5047465;28;20400;-72
2022/06/14 01:28:24;;;;;;;3.75;1.65;;;7.10;1.00;;;;;;5046618;28;20067;-73
2022/06/14 01:30:56;;;;;;;4.72;1.80;;;7.10;1.00;;;;;;5040096;28;20075;-72
2022/06/14 01:33:35;;;;;;;5.55;1.80;;;7.10;1.00;;;;;;5038325;28;20051;-72
2022/06/14 01:36:14;;;;;;;5.90;1.60;;;7.10;1.00;;;;;;5039382;28;20029;-72
2022/06/14 01:38:49;;;;;;;7.35;2.13;;;7.20;1.00;;;;;;5039611;28;20033;-72
2022/06/14 01:41:47;;;;;;;4.10;1.83;;;7.20;1.00;;;;;;5038401;28;20025;-73
2022/06/14 01:44:46;;;;;;;3.70;1.75;;;7.20;1.00;;;;;;5052225;28;20032;-73
2022/06/14 01:47:46;;;;;;;5.80;1.92;;;7.20;1.00;;;;;;5039635;28;20060;-73
2022/06/14 01:54:10;;;;;;;;;;;;;;;;;;;;;
2022/06/14 01:56:43;;;;;;;8.33;2.50;;;7.30;1.00;;;;;;5047258;28;20028;-73
2022/06/14 01:59:21;;;;;;;9.38;2.65;;;7.40;1.00;;;;;;5049316;28;20552;-73
2022/06/14 02:02:26;;;;;;;5.03;2.05;;;7.40;1.00;;;;;;5038167;28;20068;-73
2022/06/14 02:05:01;;;;;;;10.70;2.58;;;7.40;1.00;;;;;;5052182;28;20029;-72
2022/06/14 02:07:50;;;;;;;7.82;2.55;;;7.30;1.00;;;;;;5048093;28;20036;-73
2022/06/14 02:10:50;;;;;;;5.85;2.28;;;7.20;1.00;;;;;;5051900;28;20416;-73
2022/06/14 02:13:19;;;;;;;6.07;2.50;;;7.40;1.00;;;;;;5040085;28;20075;-73
2022/06/14 02:15:54;;;;;;;6.40;2.17;;;7.80;1.00;;;;;;5050334;28;20520;-73
2022/06/14 02:19:09;;;;;;;9.27;2.15;;;7.50;1.00;;;;;;5043539;28;20318;-73
2022/06/14 02:21:43;;;;;;;4.05;2.20;;;7.30;1.00;;;;;;5034310;28;20480;-73
2022/06/14 02:24:23;;;;;;;3.50;2.03;;;7.10;1.00;;;;;;5037903;28;20661;-73
2022/06/14 02:27:17;;;;;;;5.00;2.00;;;7.10;1.00;;;;;;5052047;28;20032;-73
2022/06/14 02:29:52;;;;;;;7.55;2.35;;;7.10;1.00;;;;;;5040863;28;20033;-72
2022/06/14 02:32:39;;;;;;;5.43;2.40;;;7.20;1.00;;;;;;5054265;28;20059;-73
2022/06/14 02:35:33;;;;;;;7.03;2.25;;;7.20;1.00;;;;;;5036056;28;20029;-73
2022/06/14 02:38:15;;;;;;;4.47;1.67;;;7.20;1.00;;;;;;5042151;28;20029;-73
2022/06/14 02:40:54;;;;;;;3.08;2.03;;;7.20;1.00;;;;;;5036269;28;20021;-73
2022/06/14 02:43:47;;;;;;;8.65;2.08;;;7.30;1.00;;;;;;5039084;28;20059;-73
2022/06/14 02:46:24;;;;;;;3.75;2.10;;;7.20;1.00;;;;;;5055974;28;20114;-73
2022/06/14 02:48:58;;;;;;;4.18;2.13;;;7.20;1.00;;;;;;5044770;28;20052;-73
2022/06/14 02:51:35;;;;;;;2.92;2.00;;;7.30;1.00;;;;;;5052972;28;20025;-73
2022/06/14 02:54:26;;;;;;;4.15;2.05;;;7.20;1.00;;;;;;5053023;28;20029;-73
2022/06/14 02:57:40;;;;;;;7.13;2.58;;;7.20;1.00;;;;;;5053334;28;20653;-73
2022/06/14 03:00:26;;;;;;;5.10;2.25;;;7.10;1.00;;;;;;5052131;28;20366;-73
2022/06/14 03:03:09;;;;;;;5.22;2.08;;;7.10;1.00;;;;;;5055443;28;20450;-73
2022/06/14 03:05:37;;;;;;;6.38;2.20;;;7.00;1.00;;;;;;5052928;28;20504;-73
2022/06/14 03:08:44;;;;;;;11.55;2.63;;;7.00;1.00;;;;;;5055309;28;20060;-73
2022/06/14 03:11:35;;;;;;;6.97;2.47;;;7.10;1.00;;;;;;5044215;28;20127;-73
2022/06/14 03:14:19;;;;;;;5.78;1.90;;;7.10;1.00;;;;;;5052331;28;20013;-73
2022/06/14 03:17:15;;;;;;;4.78;2.40;;;7.20;1.00;;;;;;5053601;28;20029;-73
2022/06/14 03:19:43;;;;;;;5.80;2.53;;;7.10;1.00;;;;;;5043595;28;20041;-73
2022/06/14 03:22:32;;;;;;;5.82;2.55;;;7.10;1.00;;;;;;5053675;28;20025;-74
2022/06/14 03:25:58;;;;;;;5.63;2.25;;;7.20;1.00;;;;;;5045663;28;20025;-73
2022/06/14 03:28:26;;;;;;;10.77;2.92;;;7.20;1.00;;;;;;5044554;28;20120;-73
2022/06/14 03:31:03;;;;;;;6.13;3.03;;;7.40;1.00;;;;;;5054673;28;20116;-72
2022/06/14 03:33:46;;;;;;;5.85;2.55;;;7.30;1.00;;;;;;5054648;28;20031;-73
2022/06/14 03:36:12;;;;;;;5.72;2.58;;;7.40;1.00;;;;;;5054762;28;20024;-73
2022/06/14 03:38:52;;;;;;;5.38;2.97;;;7.50;1.00;;;;;;5052636;28;20408;-73
2022/06/14 03:41:24;;;;;;;6.90;2.42;;;7.60;1.00;;;;;;5049408;28;20032;-73
2022/06/14 03:43:55;;;;;;;5.07;2.47;;;7.70;1.00;;;;;;5042257;28;20104;-73
2022/06/14 03:46:51;;;;;;;6.20;2.20;;;7.70;1.00;;;;;;5053237;28;20092;-73
2022/06/14 03:49:26;;;;;;;6.20;2.40;;;7.70;1.00;;;;;;5049195;28;20117;-73
2022/06/14 03:52:16;;;;;;;7.15;2.72;;;7.80;1.00;;;;;;5054853;28;20021;-73
2022/06/14 03:55:19;;;;;;;5.30;2.08;;;8.00;1.00;;;;;;5054476;28;20020;-73
2022/06/14 03:57:59;;;;;;;4.70;2.67;;;7.90;1.00;;;;;;5048053;28;20424;-73
2022/06/14 04:00:58;;;;;;;9.23;2.85;;;8.10;1.00;;;;;;5041879;28;20435;-73
2022/06/14 04:03:45;;;;;;;4.57;2.45;;;8.30;1.00;;;;;;5053396;28;20103;-73
2022/06/14 04:06:37;;;;;;;7.47;2.88;;;8.70;1.00;;;;;;5051510;28;20024;-73
2022/06/14 04:09:17;;;;;;;7.53;2.78;;;9.10;1.00;;;;;;5046859;28;20417;-73
2022/06/14 04:11:43;;;;;;;;;;;9.30;1.00;;;;;;5054125;28;20049;-73
2022/06/14 04:14:08;;;;;;;8.15;2.78;;;9.80;1.00;;;;;;5054149;28;19904;-73
2022/06/14 04:17:18;;;;;;;8.27;2.75;;;10.80;1.00;;;;;;5039563;28;20033;-73
2022/06/14 04:20:14;;;;;;;5.20;2.72;;;12.10;1.00;;;;;;5043558;28;20106;-73
2022/06/14 04:22:57;;;;;;;3.67;2.50;;;13.20;99.90;;;;;;5053962;28;20033;-73
2022/06/14 04:25:40;;;;;;;8.68;2.95;;;14.20;99.90;;;;;;5045166;28;20033;-73
2022/06/14 04:28:35;;;;;;;8.30;2.88;;;15.50;99.90;;;;;;5033830;28;20101;-73
2022/06/14 04:31:40;;;;;;;8.23;2.40;;;16.70;99.90;;;;;;5052710;28;20059;-73
2022/06/14 04:34:42;;;;;;;4.25;1.95;;;17.40;99.90;;;;;;5052921;28;20108;-73
2022/06/14 04:37:24;;;;;;;6.03;2.22;;;18.50;99.90;;;;;;5038241;28;20032;-73
2022/06/14 04:40:07;;;;;;;8.43;2.38;;;18.90;99.90;;;;;;5034692;28;20110;-73
2022/06/14 04:43:04;;;;;;;3.55;2.10;;;19.30;99.90;;;;;;5033751;28;20026;-73
2022/06/14 04:45:45;;;;;;;5.82;2.05;;;18.70;99.90;;;;;;5044097;28;20392;-73
2022/06/14 04:48:46;;;;;;;6.80;2.17;;;19.00;99.90;;;;;;5053591;28;20039;-74
2022/06/14 04:51:27;;;;;;;6.07;1.83;;;19.70;99.90;;;;;;5030821;28;20049;-74
2022/06/14 04:54:35;;;;;;;6.10;2.13;;;20.50;99.90;;;;;;5042567;28;20018;-74
2022/06/14 04:57:17;;;;;;;5.25;2.33;;;21.00;99.90;;;;;;5042548;28;20154;-74
2022/06/14 05:00:10;;;;;;;6.55;1.75;;;21.00;99.90;;;;;;5043519;28;20026;-73
2022/06/14 05:03:01;;;;;;;3.10;1.52;;;20.80;99.90;;;;;;5043179;28;20164;-74
2022/06/14 05:05:38;;;;;;;2.58;1.40;;;20.20;99.90;;;;;;5033224;28;20025;-73
2022/06/14 05:09:02;;;;;;;3.75;1.70;;;21.00;99.90;;;;;;5046091;28;20052;-73
2022/06/14 05:11:44;;;;;;;2.72;1.65;;;22.20;99.90;;;;;;4976233;28;20059;-73
2022/06/14 05:14:32;;;;;;;3.45;1.48;;;22.90;99.90;;;;;;5031511;28;20034;-73
2022/06/14 05:17:01;;;;;;;4.10;1.80;;;23.90;99.90;;;;;;5034791;28;20346;-73
2022/06/14 05:19:55;;;;;;;2.95;1.70;;;25.10;99.90;;;;;;5052717;28;20053;-73
2022/06/14 05:22:48;;;;;;;3.58;1.63;;;25.30;99.90;;;;;;5052744;28;20028;-73
2022/06/14 05:25:20;;;;;;;3.75;1.45;;;26.40;99.90;;;;;;5042443;28;20379;-73
2022/06/14 05:28:12;;;;;;;2.13;1.38;;;27.50;99.90;;;;;;5035625;28;20067;-74
2022/06/14 05:30:53;;;;;;;4.78;1.40;;;27.90;99.90;;;;;;5032788;28;20022;-73
2022/06/14 05:33:40;;;;;;;3.38;1.27;;;28.30;99.90;;;;;;5032468;28;20044;-73
2022/06/14 05:36:18;;;;;;;3.03;1.40;;;29.00;99.90;;;;;;5041098;28;20021;-73
2022/06/14 05:38:51;;;;;;;3.58;1.23;;;29.20;99.90;;;;;;5052465;28;20024;-74
2022/06/14 05:41:35;;;;;;;2.55;1.20;;;29.90;99.90;;;;;;5046889;28;20087;-74
2022/06/14 05:44:21;;;;;;;1.73;1.30;;;30.10;99.90;;;;;;5040594;28;20079;-74
2022/06/14 05:46:56;;;;;;;3.42;1.40;;;30.20;99.90;;;;;;5052368;28;20028;-74
2022/06/14 05:49:38;;;;;;;4.53;1.48;;;30.90;99.90;;;;;;5041866;28;20886;-74
2022/06/14 05:52:41;;;;;;;5.38;1.60;;;31.50;99.90;;;;;;5033508;28;20048;-74
2022/06/14 05:55:30;;;;;;;2.28;1.30;;;31.50;99.90;;;;;;5010617;28;20053;-74
2022/06/14 05:58:09;;;;;;;;;;;31.50;99.90;;;;;;5034158;28;20070;-74
2022/06/14 06:01:24;;;;;;;3.53;1.50;;;32.10;99.90;;;;;;5052008;28;19912;-74
2022/06/14 06:04:10;;;;;;;3.13;1.20;;;33.00;99.90;;;;;;5009542;28;20034;-74
2022/06/14 06:07:03;;;;;;;2.47;1.15;;;33.60;99.90;;;;;;5023881;28;20417;-74
2022/06/14 06:10:02;;;;;;;3.95;1.20;;;33.90;99.90;;;;;;5051746;28;20492;-74
2022/06/14 06:12:50;;;;;;;2.70;1.20;;;34.00;99.90;;;;;;5047364;28;20518;-74
2022/06/14 06:15:23;;;;;;;1.73;1.02;;;34.30;99.90;;;;;;5052097;28;20028;-74
2022/06/14 06:17:59;;;;;;;2.42;0.98;;;34.70;99.90;;;;;;5051926;28;20637;-74
2022/06/14 06:20:52;;;;;;;2.72;1.15;;;35.00;99.90;;;;;;5049052;28;20033;-74
2022/06/14 06:23:40;;;;;;;1.92;1.08;;;35.60;99.90;;;;;;5041253;28;20027;-74
2022/06/14 06:26:13;;;;;;;2.53;1.15;;;36.20;99.90;;;;;;5039428;28;20029;-74
2022/06/14 06:28:55;;;;;;;3.15;1.20;;;36.50;99.90;;;;;;5052370;28;20041;-74
2022/06/14 06:31:27;;;;;;;2.90;1.20;;;36.70;99.90;;;;;;5051757;28;20503;-74
2022/06/14 06:33:59;;;;;;;2.15;0.82;;;37.10;99.90;;;;;;5051757;28;20040;-73
2022/06/14 06:37:04;;;;;;;2.70;1.30;;;37.50;99.90;;;;;;5046934;28;20433;-73
2022/06/14 06:40:12;;;;;;;3.92;1.17;;;38.20;99.90;;;;;;5046131;28;20072;-73
2022/06/14 06:42:54;;;;;;;1.98;1.13;;;39.00;99.90;;;;;;5045721;28;20052;-74
2022/06/14 06:45:23;;;;;;;1.80;0.98;;;38.50;99.90;;;;;;5039771;28;20037;-73
2022/06/14 06:47:54;;;;;;;5.55;1.23;;;39.20;99.90;;;;;;5046781;28;20067;-73
2022/06/14 06:50:37;;;;;;;1.67;1.00;;;38.40;99.90;;;;;;5050873;28;20140;-72
2022/06/14 06:53:24;;;;;;;2.53;1.30;;;38.30;99.90;;;;;;5044530;28;20071;-73
2022/06/14 06:56:14;;;;;;;2.88;1.10;;;38.40;99.90;;;;;;5045911;28;20013;-73
2022/06/14 06:58:59;;;;;;;5.28;1.27;;;39.40;99.90;;;;;;5040860;28;20028;-73
2022/06/14 07:01:43;;;;;;;4.20;1.27;;;39.30;99.90;;;;;;5049011;28;20045;-73
2022/06/14 07:07:32;;;;;;;3.78;1.15;;;40.10;99.90;;;;;;5050581;28;20063;-73
2022/06/14 07:10:40;;;;;;;4.07;0.98;;;40.70;99.90;;;;;;5050550;28;20075;-73
2022/06/14 07:13:20;;;;;;;2.58;1.15;;;39.50;99.90;;;;;;5043903;28;20059;-73
2022/06/14 07:16:30;;;;;;;3.45;1.17;;;40.70;99.90;;;;;;5047612;28;20028;-73
2022/06/14 07:19:08;;;;;;;2.92;1.10;;;40.90;99.90;;;;;;5044323;28;20038;-73
2022/06/14 07:21:40;;;;;;;;;;;41.10;99.90;;;;;;5034825;28;20485;-73
2022/06/14 07:24:34;;;;;;;1.90;1.13;;;40.60;99.90;;;;;;5034363;28;19920;-73
2022/06/14 07:27:21;;;;;;;2.10;1.00;;;34.60;99.90;;;;;;5028095;28;20087;-73
2022/06/14 07:29:58;;;;;;;3.00;1.10;;;37.70;99.90;;;;;;5050006;28;20025;-72
2022/06/14 07:32:30;;;;;;;3.80;1.13;;;37.50;99.90;;;;;;5040534;28;20415;-72
2022/06/14 07:35:03;;;;;;;2.42;0.90;;;33.60;99.90;;;;;;5047116;28;20050;-72
2022/06/14 07:37:45;;;;;;;2.08;1.00;;;34.40;99.90;;;;;;5048647;28;20155;-72
2022/06/14 07:40:32;;;;;;;1.67;1.00;;;32.10;99.90;;;;;;5035065;28;20021;-72
2022/06/14 07:43:23;;;;;;;1.83;1.00;;;33.80;99.90;;;;;;5049565;28;20017;-72
2022/06/14 07:46:04;;;;;;;2.15;1.00;;;37.30;99.90;;;;;;5052641;28;20021;-72
2022/06/14 07:48:43;;;;;;;3.00;1.23;;;32.40;99.90;;;;;;5041806;28;20018;-72
2022/06/14 07:51:44;;;;;;;;;;;36.80;99.90;;;;;;5041087;28;20032;-72
2022/06/14 07:54:29;;;;;;;3.72;1.17;;;37.90;99.90;;;;;;5026898;28;19909;-73
2022/06/14 07:57:25;;;;;;;3.33;1.10;;;39.10;99.90;;;;;;5045613;28;20472;-72
2022/06/14 08:03:48;;;;;;;1.13;0.80;;;38.90;99.90;;;;;;5042671;28;20492;-72
2022/06/14 08:06:28;;;;;;;2.13;1.10;;;39.20;99.90;;;;;;5033467;28;20025;-73
2022/06/14 08:09:18;;;;;;;3.38;1.00;;;33.90;99.90;;;;;;5039149;28;20032;-73
2022/06/14 08:11:53;;;;;;;1.00;0.80;;;32.30;99.90;;;;;;5032917;28;20057;-73
2022/06/14 08:14:43;;;;;;;1.00;0.70;;;34.80;99.90;;;;;;5033160;28;20044;-73
2022/06/14 08:17:15;;;;;;;3.20;1.00;;;37.10;99.90;;;;;;5037738;28;20037;-73
2022/06/14 08:19:58;;;;;;;3.72;1.20;;;36.20;99.90;;;;;;5033433;28;20044;-73
2022/06/14 08:22:42;;;;;;;1.33;1.00;;;36.00;99.90;;;;;;5044729;28;20496;-73
2022/06/14 08:25:15;;;;;;;1.90;0.85;;;39.90;99.90;;;;;;5050320;28;20056;-73
2022/06/14 08:28:06;;;;;;;3.75;1.20;;;40.90;99.90;;;;;;5035586;28;20041;-73
2022/06/14 08:30:56;;;;;;;2.55;1.20;;;39.00;99.90;;;;;;5044634;28;20026;-73
2022/06/14 08:37:19;;;;;;;2.80;1.02;;;38.80;99.90;;;;;;5033389;28;20071;-73
2022/06/14 08:39:55;;;;;;;1.38;0.80;;;35.30;99.90;;;;;;5048380;28;20065;-73
2022/06/14 08:42:55;;;;;;;1.77;1.00;;;32.70;99.90;;;;;;5045864;28;20115;-73
2022/06/14 08:45:30;;;;;;;1.88;0.90;;;32.30;99.90;;;;;;5034980;28;20022;-73
2022/06/14 08:47:59;;;;;;;2.55;1.00;;;33.80;99.90;;;;;;5032988;28;20029;-74
2022/06/14 08:50:57;;;;;;;2.23;1.10;;;32.40;99.90;;;;;;5032727;28;20037;-74
2022/06/14 08:53:45;;;;;;;3.87;1.00;;;32.80;99.90;;;;;;5035641;28;20116;-75
2022/06/14 08:56:57;;;;;;;2.08;1.27;;;32.20;99.90;;;;;;5032491;28;20262;-74
2022/06/14 08:59:51;;;;;;;2.67;1.00;;;33.70;99.90;;;;;;5033532;28;20022;-74
2022/06/14 09:02:36;;;;;;;3.08;1.10;;;38.30;99.90;;;;;;5048343;28;20033;-74
2022/06/14 09:05:42;;;;;;;2.67;0.95;;;36.00;99.90;;;;;;5052219;28;20032;-74
2022/06/14 09:08:37;;;;;;;3.42;1.10;;;34.70;99.90;;;;;;5052861;28;20029;-75
2022/06/14 09:11:23;;;;;;;2.47;1.00;;;34.10;99.90;;;;;;5033388;28;20041;-74
2022/06/14 09:14:01;;;;;;;4.80;1.20;;;33.10;99.90;;;;;;5032278;28;20034;-75
2022/06/14 09:17:06;;;;;;;4.03;1.30;;;31.50;99.90;;;;;;5032292;28;20036;-74
2022/06/14 09:19:50;;;;;;;1.85;1.13;;;33.10;99.90;;;;;;5050891;28;20048;-75
2022/06/14 09:22:49;;;;;;;3.30;1.42;;;31.10;99.90;;;;;;5052172;28;20037;-75
2022/06/14 09:25:42;;;;;;;2.65;1.20;;;30.50;99.90;;;;;;5035990;28;20041;-74
2022/06/14 09:28:41;;;;;;;2.17;1.10;;;30.20;99.90;;;;;;5051900;28;20049;-75
2022/06/14 09:31:35;;;;;;;4.40;1.42;;;33.50;99.90;;;;;;5032053;28;20095;-75
2022/06/14 09:34:37;;;;;;;2.08;1.00;;;36.70;99.90;;;;;;5047456;28;20028;-74
2022/06/14 09:37:47;;;;;;;2.85;1.20;;;38.40;99.90;;;;;;5032113;28;20429;-74
2022/06/14 09:40:41;;;;;;;2.42;1.08;;;38.70;99.90;;;;;;5008957;28;20041;-73
2022/06/14 09:43:34;;;;;;;3.72;1.50;;;34.70;99.90;;;;;;5009646;28;20076;-74
2022/06/14 09:46:25;;;;;;;3.58;1.20;;;36.50;99.90;;;;;;5029959;28;20041;-73
2022/06/14 09:49:35;;;;;;;3.53;1.10;;;38.40;99.90;;;;;;5050062;28;20449;-73
2022/06/14 09:52:28;;;;;;;1.90;1.20;;;41.70;99.90;;;;;;5019225;28;20412;-73
2022/06/14 09:55:09;;;;;;;2.95;1.33;;;37.90;99.90;;;;;;5032299;28;20029;-73
2022/06/14 09:57:54;;;;;;;2.40;1.20;;;38.50;99.90;;;;;;5039401;28;20462;-73
2022/06/14 10:00:33;;;;;;;4.07;1.40;;;39.40;99.90;;;;;;5043439;28;20044;-73
2022/06/14 10:03:20;;;;;;;3.17;1.40;;;37.30;99.90;;;;;;5045996;28;20361;-73
2022/06/14 10:06:16;;;;;;;3.58;1.40;;;40.30;99.90;;;;;;5031833;28;20473;-74
2022/06/14 10:09:18;;;;;;;4.18;1.52;;;40.70;99.90;;;;;;5045056;28;20029;-74
2022/06/14 10:12:02;;;;;;;1.95;1.35;;;41.40;99.90;;;;;;5051329;28;20044;-74
2022/06/14 10:14:30;;;;;;;4.35;1.30;;;40.80;99.90;;;;;;5034192;28;20091;-74
2022/06/14 10:17:37;;;;;;;4.22;1.23;;;36.00;99.90;;;;;;5031297;28;20025;-72
2022/06/14 10:20:40;;;;;;;3.60;1.38;;;38.20;99.90;;;;;;5002613;28;20121;-72
2022/06/14 10:23:53;;;;;;;4.22;1.40;;;36.00;99.90;;;;;;4989192;28;20108;-72
2022/06/14 10:29:42;;;;;;;3.42;1.20;;;40.40;99.90;;;;;;5024872;28;20661;-73
2022/06/14 10:32:29;;;;;;;2.95;1.13;;;40.10;99.90;;;;;;5031282;28;20029;-72
2022/06/14 10:35:12;;;;;;;1.35;1.20;;;41.00;99.90;;;;;;5045375;28;20100;-73
2022/06/14 10:37:59;;;;;;;2.35;1.27;;;36.40;99.90;;;;;;5051140;28;20499;-73
2022/06/14 10:40:52;;;;;;;3.33;1.23;;;35.80;99.90;;;;;;5039913;28;20025;-72
2022/06/14 10:43:56;;;;;;;2.55;1.27;;;37.50;99.90;;;;;;5051111;28;20021;-72
2022/06/14 10:46:43;;;;;;;3.30;1.38;;;39.10;99.90;;;;;;5048192;28;20044;-73
2022/06/14 10:49:31;;;;;;;3.17;1.40;;;40.10;99.90;;;;;;5037206;28;20691;-73
2022/06/14 10:52:08;;;;;;;1.20;1.10;;;36.10;99.90;;;;;;5041035;28;20029;-73
2022/06/14 10:55:01;;;;;;;4.50;1.40;;;33.50;99.90;;;;;;5046342;28;20073;-72
2022/06/14 10:57:57;;;;;;;3.33;1.10;;;32.40;99.90;;;;;;5043626;28;20021;-72
2022/06/14 11:00:50;;;;;;;2.70;1.42;;;37.60;99.90;;;;;;5051139;28;20021;-73
2022/06/14 11:03:43;;;;;;;3.13;1.52;;;37.50;99.90;;;;;;5045426;28;20036;-72
2022/06/14 11:06:53;;;;;;;1.67;1.00;;;36.90;99.90;;;;;;5052081;28;20036;-73
2022/06/14 11:09:22;;;;;;;2.30;1.45;;;36.30;99.90;;;;;;5053836;28;20025;-74
2022/06/14 11:12:32;;;;;;;4.53;1.52;;;32.10;99.90;;;;;;5054297;28;20061;-74
2022/06/14 11:15:38;;;;;;;3.25;1.70;;;33.80;99.90;;;;;;5012376;28;20127;-74
2022/06/14 11:18:32;;;;;;;3.83;1.40;;;35.20;99.90;;;;;;5052254;28;20029;-74
2022/06/14 11:21:16;;;;;;;3.35;1.50;;;33.90;99.90;;;;;;5050114;28;20102;-74
2022/06/14 11:23:51;;;;;;;5.35;1.63;;;31.70;99.90;;;;;;5040056;28;20029;-73
2022/06/14 11:26:36;;;;;;;5.28;1.45;;;31.20;99.90;;;;;;5044295;28;20083;-73
2022/06/14 11:29:17;;;;;;;2.38;1.40;;;30.20;99.90;;;;;;5041268;28;20021;-75
2022/06/14 11:31:57;;;;;;;2.58;1.60;;;29.00;99.90;;;;;;5053599;28;20055;-74
2022/06/14 11:34:51;;;;;;;4.18;1.48;;;28.90;99.90;;;;;;5042631;28;20029;-74
2022/06/14 11:37:38;;;;;;;2.78;1.52;;;27.90;99.90;;;;;;5050091;28;20078;-74
2022/06/14 11:40:28;;;;;;;3.08;1.65;;;27.70;99.90;;;;;;5044683;28;20580;-74
2022/06/14 11:43:12;;;;;;;3.10;1.75;;;27.70;99.90;;;;;;5041923;28;20009;-74
2022/06/14 11:45:50;;;;;;;1.70;1.45;;;27.90;99.90;;;;;;5053515;28;20029;-74
2022/06/14 11:48:18;;;;;;;4.65;1.50;;;27.50;99.90;;;;;;5043837;28;20021;-74
2022/06/14 11:51:08;;;;;;;3.95;1.70;;;27.50;99.90;;;;;;5048671;28;20040;-74
2022/06/14 11:54:03;;;;;;;2.72;0.98;;;28.10;99.90;;;;;;5048981;28;20482;-74
2022/06/14 11:56:50;;;;;;;2.00;1.20;;;28.80;99.90;;;;;;5046641;28;20032;-74
2022/06/14 11:59:34;;;;;;;1.38;1.10;;;29.10;99.90;;;;;;5049071;28;20025;-74
2022/06/14 12:02:15;;;;;;;2.90;1.45;;;28.70;99.90;;;;;;5052256;28;20021;-74
2022/06/14 12:04:47;;;;;;;4.07;1.30;;;28.00;99.90;;;;;;5037260;28;20025;-73
2022/06/14 12:07:48;;;;;;;2.22;1.27;;;29.00;99.90;;;;;;5046170;28;20140;-74
2022/06/14 12:10:47;;;;;;;2.38;1.20;;;28.60;99.90;;;;;;5020666;28;20081;-74
2022/06/14 12:13:41;;;;;;;2.80;1.40;;;28.20;99.90;;;;;;5048078;28;20041;-74
2022/06/14 12:16:28;;;;;;;5.05;1.80;;;28.60;99.90;;;;;;5034566;28;20091;-73
2022/06/14 12:19:16;;;;;;;3.42;1.60;;;28.10;99.90;;;;;;5047074;28;20025;-73
2022/06/14 12:22:32;;;;;;;4.32;1.85;;;27.70;99.90;;;;;;5046874;28;20033;-74
2022/06/14 12:28:25;;;;;;;3.30;1.90;;;28.80;99.90;;;;;;5038940;28;20023;-74
2022/06/14 12:31:15;;;;;;;1.80;1.40;;;28.60;99.90;;;;;;5048887;28;20086;-74
2022/06/14 12:33:51;;;;;;;4.25;1.80;;;29.10;99.90;;;;;;5042247;28;20456;-73
2022/06/14 12:36:44;;;;;;;2.70;1.60;;;29.10;99.90;;;;;;5047964;28;20044;-73
2022/06/14 12:39:48;;;;;;;2.47;1.60;;;28.10;99.90;;;;;;5033010;28;20033;-73
2022/06/14 12:42:33;;;;;;;4.60;1.70;;;27.00;99.90;;;;;;5033033;28;20544;-73
2022/06/14 12:45:03;;;;;;;3.53;1.50;;;27.30;99.90;;;;;;5036448;28;20463;-73
2022/06/14 12:48:02;;;;;;;2.95;1.33;;;27.90;99.90;;;;;;5032706;28;20028;-73
2022/06/14 12:50:50;;;;;;;3.13;1.50;;;27.60;99.90;;;;;;5037595;28;20029;-73
2022/06/14 12:54:10;;;;;;;5.80;2.22;;;27.30;99.90;;;;;;5048743;28;20104;-72
2022/06/14 12:57:21;;;;;;;3.40;1.98;;;26.30;99.90;;;;;;5039510;28;20464;-73
2022/06/14 12:59:56;;;;;;;1.95;1.45;;;26.40;99.90;;;;;;5051294;28;20033;-73
2022/06/14 13:02:54;;;;;;;5.75;2.03;;;26.40;99.90;;;;;;5052258;28;20605;-72
2022/06/14 13:05:26;;;;;;;4.55;1.90;;;26.50;99.90;;;;;;5046666;28;20082;-73
2022/06/14 13:08:19;;;;;;;4.13;1.67;;;26.90;99.90;;;;;;5044789;28;20059;-76
2022/06/14 13:10:54;;;;;;;3.80;1.67;;;27.10;99.90;;;;;;5040055;28;20148;-73
2022/06/14 13:13:57;;;;;;;2.05;1.08;;;26.10;99.90;;;;;;5051524;28;20063;-73
2022/06/14 13:16:40;;;;;;;3.67;1.90;;;25.60;99.90;;;;;;5050767;28;20495;-73
2022/06/14 13:19:25;;;;;;;3.35;2.03;;;26.40;99.90;;;;;;5051554;28;20071;-73
2022/06/14 13:22:13;;;;;;;3.17;1.80;;;26.60;99.90;;;;;;5049712;28;20036;-74
2022/06/14 13:24:58;;;;;;;2.35;1.48;;;26.80;99.90;;;;;;5051727;28;20646;-73
2022/06/14 13:28:00;;;;;;;6.07;1.90;;;26.60;99.90;;;;;;5039377;28;20033;-73
2022/06/14 13:30:53;;;;;;;3.05;1.77;;;26.70;99.90;;;;;;5051565;28;20031;-73
2022/06/14 13:33:52;;;;;;;5.50;1.52;;;26.60;99.90;;;;;;5051601;28;20048;-73
2022/06/14 13:36:29;;;;;;;2.08;1.80;;;26.70;99.90;;;;;;5051610;28;20033;-74
2022/06/14 13:39:39;;;;;;;2.92;1.70;;;26.40;99.90;;;;;;5051681;28;20075;-73
2022/06/14 13:42:11;;;;;;;3.95;1.95;;;26.30;99.90;;;;;;5051044;28;20033;-73
2022/06/14 13:45:13;;;;;;;4.57;1.90;;;25.80;99.90;;;;;;5044860;28;20052;-73
2022/06/14 13:48:12;;;;;;;3.05;1.67;;;26.20;99.90;;;;;;5041501;28;20036;-73
2022/06/14 13:50:48;;;;;;;3.25;1.60;;;26.50;99.90;;;;;;4988782;28;20097;-73
2022/06/14 13:53:43;;;;;;;4.78;1.98;;;26.60;99.90;;;;;;5040761;28;20033;-73
2022/06/14 13:56:14;;;;;;;3.30;1.67;;;25.90;99.90;;;;;;5051290;28;20054;-72
2022/06/14 13:59:06;;;;;;;3.05;1.38;;;26.30;99.90;;;;;;5051314;28;20107;-72
2022/06/14 14:01:53;;;;;;;5.57;2.20;;;26.90;99.90;;;;;;5031243;28;20026;-72
2022/06/14 14:04:38;;;;;;;6.20;2.50;;;26.80;99.90;;;;;;5031322;28;20068;-71
2022/06/14 14:07:29;;;;;;;2.35;1.63;;;26.50;99.90;;;;;;5044976;28;20037;-72
2022/06/14 14:10:09;;;;;;;3.03;2.17;;;26.10;99.90;;;;;;5029383;28;20417;-73
2022/06/14 14:13:02;;;;;;;2.70;1.70;;;26.40;99.90;;;;;;5050302;28;20660;-73
2022/06/14 14:16:06;;;;;;;3.65;1.90;;;26.50;99.90;;;;;;5020621;28;20060;-73
2022/06/14 14:18:54;;;;;;;4.85;1.92;;;27.10;99.90;;;;;;5051609;28;20377;-73
2022/06/14 14:21:49;;;;;;;3.20;1.60;;;26.50;99.90;;;;;;5011652;28;20034;-72
2022/06/14 14:24:21;;;;;;;2.15;1.55;;;26.50;99.90;;;;;;5047342;28;20092;-72
2022/06/14 14:27:03;;;;;;;4.95;1.65;;;26.10;99.90;;;;;;5033010;28;20040;-73
2022/06/14 14:30:01;;;;;;;2.35;1.50;;;26.10;99.90;;;;;;5044003;28;20025;-73
2022/06/14 14:32:52;;;;;;;2.53;1.40;;;25.80;99.90;;;;;;5015729;28;20493;-73
2022/06/14 14:35:27;;;;;;;3.72;1.42;;;26.30;99.90;;;;;;5036448;28;20080;-73
2022/06/14 14:38:03;;;;;;;4.28;1.70;;;26.30;99.90;;;;;;5055480;28;20036;-73
2022/06/14 14:43:50;;;;;;;3.38;1.70;;;26.00;99.90;;;;;;5054942;28;20080;-73
2022/06/14 14:46:24;;;;;;;2.88;1.77;;;25.70;99.90;;;;;;5055602;28;20127;-73
2022/06/14 14:49:04;;;;;;;3.58;1.40;;;25.50;99.90;;;;;;5049677;28;20104;-73
2022/06/14 14:51:54;;;;;;;2.90;1.48;;;25.30;99.90;;;;;;5055330;28;20029;-73
2022/06/14 14:54:39;;;;;;;3.33;1.38;;;25.20;99.90;;;;;;5055390;28;20017;-73
2022/06/14 14:57:29;;;;;;;1.60;1.38;;;24.80;99.90;;;;;;5055225;28;20025;-73
2022/06/14 15:00:17;;;;;;;2.85;1.40;;;24.50;99.90;;;;;;5043610;28;20032;-73